Time;durP1;ratioP1;P1;durP2;ratioP2;P2;SDS_P1;SDS_P2;PMS_P1;PMS_P2;Temp;Humidity;BMP_temperature;BMP_pressure;BME280_temperature;BME280_humidity;BME280_pressure;Samples;Min_cycle;Max_cycle;Signal;HPM_P1;HPM_P2
2021/03/14 00:00:29;;;;;;;32.88;21.40;;;5.30;81.10;;;;;;5046993;28;20061;-55
2021/03/14 00:02:55;;;;;;;32.88;19.15;;;5.30;81.30;;;;;;5055275;28;20040;-52
2021/03/14 00:05:21;;;;;;;29.58;18.80;;;5.30;81.40;;;;;;5054850;28;20025;-54
2021/03/14 00:07:47;;;;;;;31.90;20.58;;;5.30;81.30;;;;;;5051475;28;20374;-53
2021/03/14 00:10:13;;;;;;;31.75;20.55;;;5.30;81.40;;;;;;5053890;28;20035;-55
2021/03/14 00:12:39;;;;;;;31.00;20.10;;;5.30;82.20;;;;;;5047876;28;20029;-52
2021/03/14 00:15:07;;;;;;;31.27;20.45;;;5.30;81.70;;;;;;5046897;28;20067;-52
2021/03/14 00:17:33;;;;;;;31.10;20.50;;;5.40;81.70;;;;;;5053687;28;20529;-52
2021/03/14 00:19:58;;;;;;;28.85;18.25;;;5.40;81.70;;;;;;5051599;28;20025;-53
2021/03/14 00:22:24;;;;;;;32.50;18.90;;;5.40;81.60;;;;;;5051179;28;20538;-52
2021/03/14 00:24:49;;;;;;;32.25;19.63;;;5.40;81.60;;;;;;5056101;28;20047;-55
2021/03/14 00:27:15;;;;;;;34.38;19.88;;;5.50;81.60;;;;;;5056282;28;20104;-54
2021/03/14 00:29:41;;;;;;;32.90;18.48;;;5.40;81.80;;;;;;5055291;28;20035;-52
2021/03/14 00:32:07;;;;;;;34.60;21.25;;;5.40;81.90;;;;;;5053766;28;20100;-51
2021/03/14 00:34:32;;;;;;;35.65;20.17;;;5.40;81.70;;;;;;5056138;28;20037;-52
2021/03/14 00:36:58;;;;;;;32.10;19.25;;;5.40;81.80;;;;;;5056051;28;20032;-54
2021/03/14 00:39:24;;;;;;;37.83;22.08;;;5.40;81.70;;;;;;5055647;28;20025;-57
2021/03/14 00:41:50;;;;;;;37.10;22.35;;;5.40;81.90;;;;;;5052755;28;20025;-56
2021/03/14 00:44:17;;;;;;;36.88;21.60;;;5.40;81.80;;;;;;5039821;28;20360;-54
2021/03/14 00:46:43;;;;;;;31.83;20.30;;;5.40;82.00;;;;;;5035929;28;20420;-55
2021/03/14 00:49:21;;;;;;;31.15;20.35;;;5.40;81.70;;;;;;5035780;28;20025;-56
2021/03/14 00:51:47;;;;;;;29.85;19.45;;;5.40;81.70;;;;;;5055782;28;20353;-54
2021/03/14 00:54:13;;;;;;;33.40;21.20;;;5.40;81.80;;;;;;5055781;28;20021;-56
2021/03/14 00:56:40;;;;;;;33.22;18.92;;;5.40;81.90;;;;;;5054469;28;20070;-52
2021/03/14 00:59:05;;;;;;;29.52;18.83;;;5.40;81.70;;;;;;5055560;28;20108;-54
2021/03/14 01:01:31;;;;;;;32.35;20.15;;;5.30;81.60;;;;;;5055488;28;20121;-56
2021/03/14 01:03:57;;;;;;;33.10;20.15;;;5.30;81.80;;;;;;5049173;28;20091;-53
2021/03/14 01:06:23;;;;;;;31.05;17.95;;;5.30;81.70;;;;;;5055732;28;20476;-52
2021/03/14 01:08:50;;;;;;;34.65;21.50;;;5.30;81.80;;;;;;5055313;28;20044;-53
2021/03/14 01:11:15;;;;;;;37.83;19.90;;;5.30;82.10;;;;;;5041239;28;20026;-54
2021/03/14 01:13:41;;;;;;;25.33;16.70;;;5.30;81.90;;;;;;5035422;28;20071;-52
2021/03/14 01:16:07;;;;;;;27.05;17.25;;;5.30;81.90;;;;;;5053714;28;20056;-52
2021/03/14 01:18:33;;;;;;;30.98;18.77;;;5.30;82.00;;;;;;5055277;28;20474;-57
2021/03/14 01:20:58;;;;;;;31.15;19.33;;;5.30;81.90;;;;;;5055415;28;20400;-56
2021/03/14 01:23:24;;;;;;;29.00;18.70;;;5.30;81.90;;;;;;5055037;28;20036;-55
2021/03/14 01:25:51;;;;;;;31.55;19.38;;;5.20;81.90;;;;;;5055375;28;20405;-56
2021/03/14 01:28:18;;;;;;;33.20;18.17;;;5.30;82.10;;;;;;5054839;28;20030;-52
2021/03/14 01:30:44;;;;;;;27.27;16.40;;;5.30;82.00;;;;;;5052663;28;20036;-55
2021/03/14 01:33:09;;;;;;;26.42;16.38;;;5.20;81.80;;;;;;5053933;28;20369;-56
2021/03/14 01:35:35;;;;;;;24.48;15.55;;;5.20;81.80;;;;;;5052169;28;20032;-52
2021/03/14 01:38:01;;;;;;;22.25;15.63;;;5.10;81.80;;;;;;5053400;28;20034;-56
2021/03/14 01:40:27;;;;;;;26.98;16.77;;;5.10;81.90;;;;;;5053664;28;20415;-56
2021/03/14 01:42:54;;;;;;;26.65;18.73;;;5.10;81.90;;;;;;5050430;28;20384;-56
2021/03/14 01:45:21;;;;;;;25.77;18.08;;;5.00;81.90;;;;;;5053300;28;20017;-52
2021/03/14 01:47:49;;;;;;;24.00;15.68;;;5.00;82.20;;;;;;5045060;28;20036;-53
2021/03/14 01:50:17;;;;;;;24.80;16.35;;;5.00;82.10;;;;;;5053938;28;20032;-52
2021/03/14 01:52:44;;;;;;;28.90;19.98;;;4.90;82.20;;;;;;5054138;28;20033;-53
2021/03/14 01:55:10;;;;;;;28.08;20.40;;;4.90;82.40;;;;;;5054485;28;20055;-56
2021/03/14 01:57:37;;;;;;;25.30;17.38;;;4.90;82.70;;;;;;5054989;28;20029;-53
2021/03/14 02:00:11;;;;;;;25.92;16.15;;;4.90;82.60;;;;;;5052404;28;20055;-54
2021/03/14 02:02:37;;;;;;;22.20;12.98;;;5.00;82.60;;;;;;5034393;28;20033;-56
2021/03/14 02:05:05;;;;;;;22.35;14.35;;;5.00;82.80;;;;;;5041118;28;20039;-53
2021/03/14 02:07:32;;;;;;;21.48;13.65;;;5.00;82.70;;;;;;5054461;28;20029;-52
2021/03/14 02:09:57;;;;;;;20.65;13.38;;;4.90;82.40;;;;;;5054132;28;20384;-55
2021/03/14 02:12:25;;;;;;;18.90;11.95;;;5.00;82.40;;;;;;5054209;28;20029;-52
2021/03/14 02:15:00;;;;;;;20.67;12.68;;;4.90;82.30;;;;;;5054274;28;20075;-53
2021/03/14 02:17:31;;;;;;;18.77;13.27;;;4.90;82.40;;;;;;5053468;28;20026;-51
2021/03/14 02:20:17;;;;;;;20.48;14.25;;;4.90;82.40;;;;;;5054210;28;20029;-52
2021/03/14 02:22:45;;;;;;;28.13;18.77;;;4.80;82.40;;;;;;5054318;28;20032;-54
2021/03/14 02:25:26;;;;;;;25.60;17.50;;;4.80;82.60;;;;;;5053550;28;20064;-52
2021/03/14 02:27:53;;;;;;;28.58;19.50;;;4.80;82.80;;;;;;5038081;28;20464;-54
2021/03/14 02:30:20;;;;;;;27.83;19.40;;;4.80;82.60;;;;;;5034526;28;20033;-55
2021/03/14 02:32:47;;;;;;;32.28;21.58;;;4.70;82.50;;;;;;5034103;28;20029;-54
2021/03/14 02:35:15;;;;;;;33.05;22.13;;;4.80;82.70;;;;;;5033904;28;20033;-52
2021/03/14 02:37:44;;;;;;;27.17;19.75;;;4.70;82.80;;;;;;5032609;28;20033;-52
2021/03/14 02:40:11;;;;;;;30.92;20.83;;;4.70;82.80;;;;;;5034237;28;20438;-56
2021/03/14 02:42:40;;;;;;;26.55;19.35;;;4.80;83.00;;;;;;5035278;28;20396;-54
2021/03/14 02:45:08;;;;;;;29.55;19.65;;;4.80;83.10;;;;;;5049951;28;20021;-52
2021/03/14 02:47:34;;;;;;;29.35;19.88;;;4.80;83.20;;;;;;5042500;28;20036;-52
2021/03/14 02:50:01;;;;;;;28.70;21.30;;;4.90;83.20;;;;;;5041084;28;20112;-56
2021/03/14 02:52:28;;;;;;;21.45;16.63;;;4.90;83.20;;;;;;5041458;28;20032;-56
2021/03/14 02:54:56;;;;;;;29.02;20.70;;;4.90;82.80;;;;;;5034347;28;20133;-56
2021/03/14 02:57:22;;;;;;;27.23;20.67;;;4.90;82.70;;;;;;5033805;28;20033;-54
2021/03/14 02:59:53;;;;;;;28.40;20.17;;;5.00;82.80;;;;;;5033622;28;20136;-53
2021/03/14 03:02:19;;;;;;;24.65;18.25;;;5.00;83.10;;;;;;5037130;28;20113;-56
2021/03/14 03:04:48;;;;;;;20.48;15.38;;;5.10;82.90;;;;;;5037797;28;20402;-54
2021/03/14 03:07:16;;;;;;;20.50;14.73;;;5.10;82.90;;;;;;5047811;28;20087;-52
2021/03/14 03:09:54;;;;;;;15.02;11.38;;;5.20;83.00;;;;;;5057682;28;20044;-54
2021/03/14 03:12:23;;;;;;;17.48;12.00;;;5.20;82.90;;;;;;5057767;28;20037;-54
2021/03/14 03:14:51;;;;;;;18.45;12.95;;;5.20;82.50;;;;;;5056439;28;20025;-53
2021/03/14 03:17:18;;;;;;;19.10;13.00;;;5.20;82.50;;;;;;5048647;28;20464;-52
2021/03/14 03:19:44;;;;;;;19.85;12.55;;;5.30;82.50;;;;;;5037588;28;20032;-56
2021/03/14 03:22:10;;;;;;;19.23;12.30;;;5.30;82.10;;;;;;5037488;28;20029;-53
2021/03/14 03:24:36;;;;;;;17.23;11.80;;;5.30;82.00;;;;;;5037503;28;20036;-55
2021/03/14 03:27:02;;;;;;;15.45;11.38;;;5.30;81.90;;;;;;5037626;28;20022;-53
2021/03/14 03:29:28;;;;;;;17.77;10.75;;;5.30;81.60;;;;;;5054959;28;20029;-53
2021/03/14 03:31:54;;;;;;;15.25;10.73;;;5.20;81.40;;;;;;5057253;28;20020;-54
2021/03/14 03:34:20;;;;;;;15.85;10.73;;;5.20;81.60;;;;;;5037945;28;20034;-55
2021/03/14 03:36:46;;;;;;;20.73;12.25;;;5.10;81.40;;;;;;5037181;28;20409;-56
2021/03/14 03:39:13;;;;;;;19.30;12.30;;;5.10;81.60;;;;;;5037414;28;20445;-55
2021/03/14 03:42:06;;;;;;;24.30;13.25;;;5.10;81.70;;;;;;5037353;28;20064;-56
2021/03/14 03:44:35;;;;;;;18.23;10.80;;;5.00;81.40;;;;;;5029304;28;20037;-56
2021/03/14 03:47:01;;;;;;;17.80;11.57;;;5.00;81.90;;;;;;5037166;28;20044;-55
2021/03/14 03:49:31;;;;;;;19.05;10.93;;;4.90;81.80;;;;;;5037074;28;20022;-56
2021/03/14 03:51:58;;;;;;;17.85;11.48;;;4.90;81.90;;;;;;5036936;28;20064;-56
2021/03/14 03:54:26;;;;;;;20.13;12.80;;;4.80;81.90;;;;;;5044639;28;20053;-54
2021/03/14 03:56:54;;;;;;;18.40;11.40;;;4.80;82.20;;;;;;5048901;28;20033;-53
2021/03/14 03:59:21;;;;;;;16.85;11.07;;;4.80;82.60;;;;;;5056718;28;20029;-53
2021/03/14 04:01:48;;;;;;;20.73;13.23;;;4.90;82.70;;;;;;5056715;28;20056;-55
2021/03/14 04:04:15;;;;;;;17.45;10.82;;;4.90;82.70;;;;;;5053342;28;20074;-55
2021/03/14 04:06:42;;;;;;;22.27;14.38;;;4.90;82.80;;;;;;5037062;28;20083;-54
2021/03/14 04:09:08;;;;;;;25.27;14.05;;;4.90;82.90;;;;;;5036827;28;20026;-52
2021/03/14 04:11:38;;;;;;;23.48;13.45;;;4.90;83.00;;;;;;5036872;28;20125;-56
2021/03/14 04:14:04;;;;;;;23.02;13.93;;;5.00;83.10;;;;;;5039035;28;20021;-53
2021/03/14 04:16:31;;;;;;;22.23;12.95;;;5.00;83.10;;;;;;5055818;28;20104;-52
2021/03/14 04:18:59;;;;;;;22.75;13.45;;;5.10;83.30;;;;;;5055176;28;20029;-55
2021/03/14 04:21:26;;;;;;;16.80;10.73;;;5.10;83.10;;;;;;5056527;28;20032;-56
2021/03/14 04:23:54;;;;;;;22.65;13.57;;;5.10;83.00;;;;;;5056425;28;20036;-56
2021/03/14 04:26:21;;;;;;;24.15;14.05;;;5.20;82.80;;;;;;5056328;28;20216;-55
2021/03/14 04:28:50;;;;;;;23.45;15.07;;;5.10;82.70;;;;;;5056371;28;20040;-54
2021/03/14 04:31:16;;;;;;;21.15;13.05;;;5.10;82.80;;;;;;5056475;28;20530;-53
2021/03/14 04:33:44;;;;;;;20.58;11.73;;;5.20;82.80;;;;;;5056365;28;20036;-54
2021/03/14 04:36:11;;;;;;;21.80;11.93;;;5.10;82.80;;;;;;5055331;28;20027;-56
2021/03/14 04:38:39;;;;;;;23.10;14.05;;;5.10;82.70;;;;;;5056039;28;20078;-52
2021/03/14 04:41:05;;;;;;;18.05;11.50;;;5.10;82.80;;;;;;5055899;28;20025;-52
2021/03/14 04:43:31;;;;;;;18.77;11.75;;;5.10;82.80;;;;;;5046000;28;20100;-53
2021/03/14 04:45:57;;;;;;;21.75;13.40;;;5.10;82.80;;;;;;5052491;28;20060;-52
2021/03/14 04:48:24;;;;;;;22.48;12.48;;;5.10;82.80;;;;;;5036262;28;20045;-55
2021/03/14 04:50:52;;;;;;;19.02;11.60;;;5.10;82.80;;;;;;5035911;28;20029;-55
2021/03/14 04:53:19;;;;;;;15.88;10.38;;;5.10;82.70;;;;;;5035780;28;20060;-52
2021/03/14 04:55:47;;;;;;;18.60;11.90;;;5.00;82.70;;;;;;5035408;28;20079;-56
2021/03/14 04:58:17;;;;;;;18.77;11.05;;;5.00;83.00;;;;;;5055351;28;20087;-52
2021/03/14 05:00:43;;;;;;;15.68;10.32;;;5.00;82.80;;;;;;5055458;28;20071;-53
2021/03/14 05:03:11;;;;;;;15.27;9.95;;;5.00;82.80;;;;;;5055470;28;20526;-56
2021/03/14 05:05:41;;;;;;;19.42;11.52;;;5.00;82.60;;;;;;5056012;28;20021;-56
2021/03/14 05:08:09;;;;;;;19.55;12.43;;;5.00;82.80;;;;;;5055422;28;20063;-55
2021/03/14 05:10:37;;;;;;;19.63;11.30;;;4.90;83.00;;;;;;5055545;28;20096;-54
2021/03/14 05:13:03;;;;;;;22.15;11.77;;;4.90;83.20;;;;;;5055416;28;20461;-55
2021/03/14 05:15:29;;;;;;;25.13;14.05;;;4.90;83.60;;;;;;5055537;28;20060;-56
2021/03/14 05:17:55;;;;;;;17.58;11.63;;;5.00;83.70;;;;;;5039613;28;20033;-54
2021/03/14 05:20:21;;;;;;;22.40;11.75;;;5.00;83.80;;;;;;5035270;28;20052;-55
2021/03/14 05:22:48;;;;;;;20.13;11.27;;;5.10;83.60;;;;;;5035235;28;20053;-52
2021/03/14 05:25:17;;;;;;;16.20;10.93;;;5.10;83.80;;;;;;5040906;28;20162;-55
2021/03/14 05:27:49;;;;;;;22.63;13.13;;;5.10;83.70;;;;;;5054956;28;20068;-55
2021/03/14 05:30:17;;;;;;;20.17;11.50;;;5.20;84.30;;;;;;5055280;28;20403;-55
2021/03/14 05:32:42;;;;;;;20.58;12.00;;;5.20;83.90;;;;;;5055308;28;20399;-55
2021/03/14 05:35:09;;;;;;;21.00;12.07;;;5.20;83.60;;;;;;5055123;28;20104;-57
2021/03/14 05:37:34;;;;;;;16.58;11.02;;;5.30;83.70;;;;;;5054914;28;20029;-53
2021/03/14 05:40:00;;;;;;;18.83;11.15;;;5.30;83.60;;;;;;5054888;28;20033;-52
2021/03/14 05:42:26;;;;;;;19.02;11.40;;;5.30;83.60;;;;;;5054798;28;20396;-56
2021/03/14 05:44:52;;;;;;;16.48;10.95;;;5.30;83.40;;;;;;5036063;28;20372;-54
2021/03/14 05:47:21;;;;;;;15.82;10.38;;;5.30;83.50;;;;;;5034305;28;20026;-55
2021/03/14 05:49:51;;;;;;;16.27;10.60;;;5.40;84.00;;;;;;5034912;28;20513;-54
2021/03/14 05:52:19;;;;;;;22.48;12.35;;;5.40;83.50;;;;;;5035045;28;20071;-58
2021/03/14 05:54:53;;;;;;;18.48;11.43;;;5.30;83.50;;;;;;5034481;28;20037;-56
2021/03/14 05:57:19;;;;;;;17.27;10.35;;;5.40;83.80;;;;;;5034402;28;20048;-54
2021/03/14 05:59:50;;;;;;;18.60;11.45;;;5.40;83.80;;;;;;5034596;28;20501;-57
2021/03/14 06:02:20;;;;;;;18.23;10.50;;;5.50;83.80;;;;;;5034423;28;20022;-55
2021/03/14 06:04:46;;;;;;;17.85;10.50;;;5.50;83.50;;;;;;5034674;28;20101;-56
2021/03/14 06:07:13;;;;;;;17.48;10.45;;;5.50;83.80;;;;;;5034664;28;20021;-52
2021/03/14 06:09:40;;;;;;;17.73;11.38;;;5.60;83.80;;;;;;5034717;28;20052;-53
2021/03/14 06:12:10;;;;;;;19.65;10.63;;;5.70;83.60;;;;;;5034621;28;20079;-55
2021/03/14 06:14:36;;;;;;;21.48;13.27;;;5.70;83.40;;;;;;5034287;28;20018;-54
2021/03/14 06:17:02;;;;;;;28.25;15.38;;;5.70;83.40;;;;;;5034325;28;20037;-53
2021/03/14 06:19:28;;;;;;;35.67;18.95;;;5.80;83.30;;;;;;5035657;28;20021;-53
2021/03/14 06:22:24;;;;;;;42.90;22.30;;;5.90;83.90;;;;;;5034272;28;20472;-52
2021/03/14 06:24:52;;;;;;;47.05;23.67;;;5.90;83.50;;;;;;5045537;28;20128;-54
2021/03/14 06:27:32;;;;;;;53.92;24.42;;;6.00;83.30;;;;;;5053928;28;20056;-55
2021/03/14 06:29:58;;;;;;;39.40;20.48;;;6.00;83.10;;;;;;5054250;28;20408;-55
2021/03/14 06:32:24;;;;;;;51.83;20.98;;;6.10;83.40;;;;;;5054017;28;20112;-56
2021/03/14 06:34:51;;;;;;;41.13;20.35;;;6.20;83.50;;;;;;5054116;28;20056;-56
2021/03/14 06:37:17;;;;;;;36.55;18.45;;;6.30;83.30;;;;;;5053630;28;20051;-52
2021/03/14 06:39:49;;;;;;;27.55;14.68;;;6.30;83.10;;;;;;5053924;28;20061;-55
2021/03/14 06:42:37;;;;;;;23.67;12.95;;;6.30;82.50;;;;;;5053905;28;20021;-54
2021/03/14 06:45:07;;;;;;;17.88;11.85;;;6.40;82.20;;;;;;5049672;28;20037;-56
2021/03/14 06:47:57;;;;;;;18.58;11.90;;;6.40;82.30;;;;;;5041546;28;20041;-55
2021/03/14 06:50:29;;;;;;;17.88;11.15;;;6.50;82.60;;;;;;5034222;28;20057;-53
2021/03/14 06:53:07;;;;;;;19.15;13.63;;;6.50;82.40;;;;;;5033827;28;20032;-54
2021/03/14 06:55:33;;;;;;;14.23;10.27;;;6.50;82.10;;;;;;5033808;28;20030;-56
2021/03/14 06:58:19;;;;;;;16.63;10.93;;;6.50;82.10;;;;;;5033817;28;20468;-55
2021/03/14 07:01:08;;;;;;;15.77;10.10;;;6.60;82.10;;;;;;5033298;28;20059;-54
2021/03/14 07:03:34;;;;;;;19.27;11.25;;;6.60;81.90;;;;;;5033634;28;20347;-54
2021/03/14 07:06:23;;;;;;;21.58;12.50;;;6.60;81.80;;;;;;5033847;28;20049;-55
2021/03/14 07:08:52;;;;;;;22.33;13.77;;;6.60;82.00;;;;;;5034074;28;20487;-52
2021/03/14 07:11:47;;;;;;;36.40;18.27;;;6.70;82.40;;;;;;5033702;28;20029;-56
2021/03/14 07:14:16;;;;;;;30.15;17.05;;;6.80;82.10;;;;;;5028975;28;20489;-56
2021/03/14 07:16:49;;;;;;;39.00;19.38;;;6.80;82.20;;;;;;5033526;28;20013;-52
2021/03/14 07:19:20;;;;;;;35.10;19.23;;;6.90;82.20;;;;;;5045305;28;20423;-55
2021/03/14 07:21:56;;;;;;;34.35;17.05;;;7.00;82.10;;;;;;5053708;28;20029;-56
2021/03/14 07:24:29;;;;;;;48.55;22.13;;;7.10;82.00;;;;;;5053420;28;20115;-53
2021/03/14 07:26:56;;;;;;;34.45;19.42;;;7.10;81.90;;;;;;5033863;28;20025;-56
2021/03/14 07:29:24;;;;;;;34.67;19.10;;;7.20;81.70;;;;;;5033455;28;20089;-55
2021/03/14 07:31:50;;;;;;;28.70;15.43;;;7.30;81.70;;;;;;5034005;28;20354;-56
2021/03/14 07:34:17;;;;;;;22.70;14.23;;;7.30;81.50;;;;;;5033499;28;20049;-56
2021/03/14 07:36:45;;;;;;;25.08;14.23;;;7.40;81.30;;;;;;5033222;28;20034;-56
2021/03/14 07:39:11;;;;;;;23.83;14.13;;;7.40;81.10;;;;;;5033306;28;20025;-57
2021/03/14 07:41:36;;;;;;;25.10;16.33;;;7.40;81.10;;;;;;5033418;28;20021;-56
2021/03/14 07:44:05;;;;;;;32.65;21.23;;;7.50;81.10;;;;;;5033465;28;20068;-52
2021/03/14 07:46:31;;;;;;;41.88;28.15;;;7.50;81.10;;;;;;5033522;28;20052;-53
2021/03/14 07:49:00;;;;;;;51.28;32.70;;;7.60;80.90;;;;;;5035580;28;20029;-54
2021/03/14 07:51:26;;;;;;;53.53;33.83;;;7.60;80.70;;;;;;5037023;28;20025;-56
2021/03/14 07:53:58;;;;;;;45.28;31.08;;;7.60;80.70;;;;;;5036942;28;20026;-55
2021/03/14 07:56:33;;;;;;;55.03;33.38;;;7.60;80.40;;;;;;5036951;28;20029;-52
2021/03/14 07:58:59;;;;;;;39.45;26.33;;;7.70;80.30;;;;;;5037034;28;20029;-57
2021/03/14 08:01:31;;;;;;;36.72;23.00;;;7.70;80.50;;;;;;5036790;28;20056;-54
2021/03/14 08:03:57;;;;;;;35.15;21.67;;;7.70;80.40;;;;;;5039508;28;20108;-56
2021/03/14 08:06:41;;;;;;;33.85;20.27;;;7.70;80.10;;;;;;5053580;28;20420;-53
2021/03/14 08:09:07;;;;;;;30.35;18.85;;;7.70;79.90;;;;;;5055986;28;20017;-56
2021/03/14 08:11:33;;;;;;;29.55;17.42;;;7.70;80.10;;;;;;5055744;28;20158;-55
2021/03/14 08:13:58;;;;;;;26.85;15.88;;;7.80;80.10;;;;;;5055961;28;20029;-56
2021/03/14 08:16:24;;;;;;;27.85;17.92;;;7.80;79.90;;;;;;5056091;28;20033;-54
2021/03/14 08:18:52;;;;;;;34.08;22.48;;;7.80;79.90;;;;;;5048063;28;20022;-53
2021/03/14 08:21:23;;;;;;;51.10;32.30;;;7.80;79.90;;;;;;5036926;28;20029;-56
2021/03/14 08:23:54;;;;;;;61.22;37.10;;;7.90;80.10;;;;;;5036536;28;20033;-54
2021/03/14 08:26:23;;;;;;;76.72;43.15;;;7.90;79.90;;;;;;5036281;28;20030;-56
2021/03/14 08:29:12;;;;;;;80.57;47.05;;;7.90;79.90;;;;;;5036327;28;20014;-56
2021/03/14 08:31:41;;;;;;;80.45;44.30;;;8.00;79.80;;;;;;5036323;28;20037;-56
2021/03/14 08:34:12;;;;;;;69.13;40.03;;;8.00;79.50;;;;;;5038005;28;20037;-54
2021/03/14 08:36:42;;;;;;;75.22;40.08;;;8.00;79.50;;;;;;5056110;28;20025;-56
2021/03/14 08:39:27;;;;;;;68.20;36.58;;;8.00;80.00;;;;;;5056221;28;20380;-54
2021/03/14 08:41:58;;;;;;;67.90;38.58;;;8.10;79.50;;;;;;5056075;28;20079;-56
2021/03/14 08:44:40;;;;;;;70.15;38.38;;;8.20;79.90;;;;;;5056131;28;20040;-56
2021/03/14 08:47:11;;;;;;;68.03;38.42;;;8.30;79.70;;;;;;5051193;28;20041;-56
2021/03/14 08:49:39;;;;;;;56.50;33.03;;;8.30;79.60;;;;;;5055788;28;20052;-56
2021/03/14 08:52:07;;;;;;;54.42;30.38;;;8.50;79.70;;;;;;5050339;28;20108;-54
2021/03/14 08:54:38;;;;;;;43.28;26.00;;;8.50;79.40;;;;;;5036162;28;20029;-54
2021/03/14 08:57:07;;;;;;;41.97;20.92;;;8.60;79.30;;;;;;5035782;28;20029;-56
2021/03/14 08:59:33;;;;;;;30.92;19.00;;;8.70;79.10;;;;;;5035797;28;20136;-53
2021/03/14 09:02:01;;;;;;;28.50;17.40;;;8.80;78.70;;;;;;5035749;28;20026;-53
2021/03/14 09:04:34;;;;;;;27.20;16.55;;;8.80;78.70;;;;;;5035674;28;20033;-55
2021/03/14 09:07:08;;;;;;;24.60;15.07;;;8.90;78.60;;;;;;5035895;28;20022;-55
2021/03/14 09:09:35;;;;;;;35.95;19.40;;;9.00;78.40;;;;;;5035856;28;20403;-57
2021/03/14 09:12:13;;;;;;;34.80;20.42;;;9.00;78.10;;;;;;5035550;28;20018;-55
2021/03/14 09:14:39;;;;;;;32.60;19.98;;;9.10;77.70;;;;;;5035738;28;20049;-56
2021/03/14 09:17:08;;;;;;;34.30;20.98;;;9.10;77.60;;;;;;5035498;28;20032;-53
2021/03/14 09:19:40;;;;;;;39.30;22.48;;;9.10;78.30;;;;;;5034029;28;20033;-56
2021/03/14 09:22:13;;;;;;;38.22;21.33;;;9.10;77.40;;;;;;5035323;28;20476;-54
2021/03/14 09:24:42;;;;;;;35.42;20.85;;;9.10;77.40;;;;;;5035239;28;20101;-53
2021/03/14 09:27:17;;;;;;;48.15;24.17;;;9.10;77.30;;;;;;5035466;28;20021;-53
2021/03/14 09:29:59;;;;;;;39.40;21.50;;;9.10;77.20;;;;;;5035262;28;20017;-56
2021/03/14 09:32:37;;;;;;;48.00;24.65;;;9.20;77.40;;;;;;5035377;28;20448;-52
2021/03/14 09:35:09;;;;;;;33.92;18.00;;;9.20;77.30;;;;;;5046357;28;20051;-53
2021/03/14 09:37:35;;;;;;;24.38;16.00;;;9.20;78.00;;;;;;5055117;28;20096;-54
2021/03/14 09:40:16;;;;;;;23.08;14.38;;;9.20;77.10;;;;;;5055130;28;20033;-57
2021/03/14 09:42:44;;;;;;;23.05;14.88;;;9.30;77.20;;;;;;5054487;28;20032;-55
2021/03/14 09:45:18;;;;;;;22.58;14.98;;;9.30;77.10;;;;;;5054599;28;20021;-57
2021/03/14 09:48:05;;;;;;;22.02;14.52;;;9.30;77.10;;;;;;5051536;28;20033;-56
2021/03/14 09:50:38;;;;;;;22.73;14.35;;;9.30;76.90;;;;;;5033515;28;20024;-56
2021/03/14 09:53:06;;;;;;;29.67;16.58;;;9.40;76.90;;;;;;5046990;28;20033;-56
2021/03/14 09:55:37;;;;;;;24.10;14.80;;;9.40;76.90;;;;;;5054669;28;20091;-55
2021/03/14 09:58:07;;;;;;;16.02;11.40;;;9.40;76.80;;;;;;5054277;28;20025;-54
2021/03/14 10:00:33;;;;;;;22.00;12.27;;;9.40;76.40;;;;;;5054445;28;20049;-54
2021/03/14 10:03:13;;;;;;;27.67;16.00;;;9.40;76.30;;;;;;5054365;28;20024;-56
2021/03/14 10:05:43;;;;;;;28.55;15.90;;;9.40;76.00;;;;;;5037902;28;20071;-56
2021/03/14 10:08:11;;;;;;;24.48;14.65;;;9.30;76.10;;;;;;5034779;28;20017;-55
2021/03/14 10:10:38;;;;;;;28.10;16.23;;;9.20;76.10;;;;;;5033820;28;20067;-53
2021/03/14 10:13:08;;;;;;;28.75;17.33;;;9.20;76.20;;;;;;5034672;28;20080;-56
2021/03/14 10:15:35;;;;;;;35.60;17.50;;;9.20;76.80;;;;;;5034432;28;20061;-55
2021/03/14 10:18:03;;;;;;;39.78;21.08;;;9.10;75.90;;;;;;5034289;28;20067;-53
2021/03/14 10:20:29;;;;;;;41.13;23.38;;;9.10;75.70;;;;;;5034343;28;20021;-53
2021/03/14 10:23:06;;;;;;;51.17;24.38;;;9.00;75.90;;;;;;5034195;28;20035;-53
2021/03/14 10:25:38;;;;;;;42.40;23.35;;;8.90;76.30;;;;;;5034347;28;20457;-54
2021/03/14 10:28:05;;;;;;;47.33;25.77;;;8.90;76.50;;;;;;5034329;28;20130;-56
2021/03/14 10:30:30;;;;;;;45.40;24.92;;;8.90;76.60;;;;;;5034160;28;20090;-55
2021/03/14 10:32:56;;;;;;;42.38;21.58;;;8.90;76.80;;;;;;5034070;28;20105;-52
2021/03/14 10:35:22;;;;;;;37.85;20.27;;;8.90;77.20;;;;;;5034069;28;20115;-53
2021/03/14 10:37:47;;;;;;;41.08;21.52;;;8.90;77.20;;;;;;5034009;28;20029;-52
2021/03/14 10:40:18;;;;;;;37.08;22.15;;;8.90;77.10;;;;;;5033852;28;20033;-54
2021/03/14 10:42:50;;;;;;;36.35;20.45;;;8.90;77.10;;;;;;5033909;28;20116;-56
2021/03/14 10:45:18;;;;;;;39.47;21.70;;;9.00;77.00;;;;;;5033964;28;20025;-57
2021/03/14 10:47:46;;;;;;;36.97;20.55;;;9.00;77.00;;;;;;5038334;28;20044;-55
2021/03/14 10:50:20;;;;;;;40.90;20.77;;;9.00;77.10;;;;;;5034164;28;20369;-56
2021/03/14 10:53:05;;;;;;;33.85;19.25;;;9.00;77.30;;;;;;5044989;28;20020;-55
2021/03/14 10:55:31;;;;;;;39.25;21.48;;;9.00;77.30;;;;;;5053694;28;20037;-56
2021/03/14 10:58:15;;;;;;;38.50;21.40;;;9.10;77.10;;;;;;5053861;28;20044;-55
2021/03/14 11:00:52;;;;;;;39.15;22.77;;;9.10;77.10;;;;;;5049383;28;20092;-53
2021/03/14 11:03:36;;;;;;;34.03;18.40;;;9.10;77.10;;;;;;5043677;28;20043;-57
2021/03/14 11:06:19;;;;;;;31.27;18.27;;;9.10;77.00;;;;;;5034069;28;20037;-55
2021/03/14 11:08:56;;;;;;;52.22;24.40;;;9.10;76.70;;;;;;5038222;28;20029;-54
2021/03/14 11:11:35;;;;;;;51.55;26.02;;;9.00;76.90;;;;;;5033774;28;20032;-56
2021/03/14 11:14:00;;;;;;;46.13;22.63;;;9.00;76.90;;;;;;5033657;28;20033;-55
2021/03/14 11:16:26;;;;;;;44.38;21.13;;;9.00;77.10;;;;;;5033670;28;20017;-57
2021/03/14 11:19:18;;;;;;;45.42;24.08;;;8.90;77.10;;;;;;5033712;28;20060;-55
2021/03/14 11:21:44;;;;;;;37.50;19.77;;;8.90;77.30;;;;;;5030637;28;20042;-56
2021/03/14 11:24:10;;;;;;;38.72;20.70;;;8.90;77.60;;;;;;5036381;28;20026;-57
2021/03/14 11:26:35;;;;;;;33.13;18.13;;;9.00;77.60;;;;;;5036870;28;20040;-55
2021/03/14 11:29:01;;;;;;;26.30;17.15;;;8.90;77.40;;;;;;5037279;28;20025;-56
2021/03/14 11:31:27;;;;;;;21.10;14.18;;;8.90;77.70;;;;;;5037278;28;20365;-56
2021/03/14 11:33:52;;;;;;;23.88;14.55;;;8.90;77.80;;;;;;5037133;28;20132;-54
2021/03/14 11:36:18;;;;;;;25.92;15.73;;;9.00;77.60;;;;;;5037028;28;20021;-54
2021/03/14 11:38:43;;;;;;;27.67;16.05;;;9.00;77.70;;;;;;5037050;28;20366;-56
2021/03/14 11:41:09;;;;;;;26.77;15.70;;;8.90;77.70;;;;;;5037178;28;20331;-55
2021/03/14 11:43:35;;;;;;;30.40;16.40;;;8.90;77.80;;;;;;5036976;28;20080;-56
2021/03/14 11:46:00;;;;;;;30.23;16.27;;;8.90;78.00;;;;;;5037048;28;20365;-57
2021/03/14 11:48:26;;;;;;;32.08;16.98;;;8.90;77.90;;;;;;5045378;28;20562;-57
2021/03/14 11:50:52;;;;;;;27.65;16.17;;;8.90;78.00;;;;;;5043739;28;20029;-56
2021/03/14 11:53:17;;;;;;;28.60;17.98;;;9.00;78.20;;;;;;5041215;28;20401;-56
2021/03/14 11:55:43;;;;;;;29.95;17.63;;;9.00;78.10;;;;;;5036886;28;20038;-55
2021/03/14 11:58:08;;;;;;;34.53;19.30;;;9.00;78.30;;;;;;5035393;28;20044;-57
2021/03/14 12:00:34;;;;;;;24.65;14.40;;;9.00;78.20;;;;;;5044001;28;20167;-55
2021/03/14 12:03:00;;;;;;;25.23;15.63;;;9.00;78.10;;;;;;5053561;28;20047;-55
2021/03/14 12:05:25;;;;;;;20.50;12.98;;;9.00;78.00;;;;;;5046977;28;20017;-57
2021/03/14 12:07:51;;;;;;;22.05;14.07;;;9.10;78.10;;;;;;5055119;28;20092;-57
2021/03/14 12:10:17;;;;;;;18.75;12.50;;;9.10;77.80;;;;;;5055161;28;20048;-55
2021/03/14 12:12:42;;;;;;;17.95;12.25;;;9.10;78.00;;;;;;5040468;28;20029;-55
2021/03/14 12:15:09;;;;;;;15.27;11.93;;;9.10;77.80;;;;;;5042985;28;20531;-54
2021/03/14 12:17:35;;;;;;;16.92;11.48;;;9.00;77.70;;;;;;5053169;28;20033;-53
2021/03/14 12:20:00;;;;;;;18.70;12.75;;;9.10;77.70;;;;;;5054931;28;20128;-53
2021/03/14 12:22:28;;;;;;;18.30;12.50;;;9.00;77.80;;;;;;5053033;28;20384;-56
2021/03/14 12:24:53;;;;;;;17.77;12.65;;;9.00;77.80;;;;;;5046936;28;20056;-55
2021/03/14 12:27:19;;;;;;;19.30;12.10;;;8.90;77.90;;;;;;5052531;28;20523;-56
2021/03/14 12:29:45;;;;;;;18.10;11.70;;;8.90;77.90;;;;;;5046489;28;20033;-56
2021/03/14 12:32:11;;;;;;;21.08;12.60;;;8.80;78.50;;;;;;5035933;28;20527;-56
2021/03/14 12:34:37;;;;;;;17.55;11.88;;;8.80;78.10;;;;;;5035536;28;20079;-57
2021/03/14 12:37:02;;;;;;;17.60;12.70;;;8.80;78.40;;;;;;5036181;28;20040;-56
2021/03/14 12:39:29;;;;;;;18.70;12.77;;;8.80;78.30;;;;;;5036510;28;20022;-52
2021/03/14 12:41:54;;;;;;;22.13;13.13;;;8.80;78.70;;;;;;5036009;28;20359;-54
2021/03/14 12:44:20;;;;;;;18.58;13.30;;;8.80;78.80;;;;;;5035238;28;20033;-57